createdAt,value
2022-12-24T00:00:58.924Z,-11
2022-12-24T00:02:05.209Z,-10
2022-12-24T00:03:11.469Z,-12
2022-12-24T00:04:17.750Z,-12
2022-12-24T00:05:23.044Z,-12
2022-12-24T00:06:28.345Z,-10
2022-12-24T00:07:33.625Z,-11
2022-12-24T00:08:38.916Z,-12
2022-12-24T00:09:45.186Z,-10
2022-12-24T00:10:51.476Z,-11
2022-12-24T00:11:57.753Z,-11
2022-12-24T00:13:04.056Z,-12
2022-12-24T00:14:10.279Z,-12
2022-12-24T00:15:16.619Z,-11
2022-12-24T00:16:22.819Z,-12
2022-12-24T00:17:29.095Z,-12
2022-12-24T00:18:35.366Z,-11
2022-12-24T00:19:41.634Z,-11
2022-12-24T00:20:47.905Z,-12
2022-12-24T00:21:54.181Z,-11
2022-12-24T00:22:59.474Z,-12
2022-12-24T00:24:05.759Z,-12
2022-12-24T00:25:12.013Z,-12
2022-12-24T00:26:18.291Z,-11
2022-12-24T00:27:24.590Z,-12
2022-12-24T00:28:30.836Z,-11
2022-12-24T00:29:37.104Z,-12
2022-12-24T00:30:42.413Z,-12
2022-12-24T00:31:47.686Z,-10
2022-12-24T00:32:52.996Z,-11
2022-12-24T00:33:58.278Z,-11
2022-12-24T00:35:04.547Z,-11
2022-12-24T00:36:10.847Z,-11
2022-12-24T00:37:17.112Z,-9
2022-12-24T00:38:23.363Z,-11
2022-12-24T00:39:29.646Z,-12
2022-12-24T00:40:35.917Z,-12
2022-12-24T00:41:42.182Z,-12
2022-12-24T00:42:48.470Z,-13
2022-12-24T00:43:54.731Z,-12
2022-12-24T00:45:01.011Z,-12
2022-12-24T00:46:07.272Z,-12
2022-12-24T00:47:13.544Z,-12
2022-12-24T00:48:18.836Z,-12
2022-12-24T00:49:25.098Z,-12
2022-12-24T00:50:31.502Z,-12
2022-12-24T00:51:37.654Z,-12
2022-12-24T00:52:43.930Z,-13
2022-12-24T00:53:50.194Z,-12
2022-12-24T00:54:56.472Z,-12
2022-12-24T00:56:01.796Z,-12
2022-12-24T00:57:07.054Z,-12
2022-12-24T00:58:12.374Z,-13
2022-12-24T00:59:17.645Z,-12
2022-12-24T01:00:23.934Z,-12
2022-12-24T01:01:30.179Z,-12
2022-12-24T01:02:36.456Z,-13
2022-12-24T01:03:42.719Z,-12
2022-12-24T01:04:49.092Z,-13
2022-12-24T01:05:55.275Z,-14
2022-12-24T01:07:01.549Z,-13
2022-12-24T01:08:07.848Z,-12
2022-12-24T01:09:14.100Z,-12
2022-12-24T01:10:19.406Z,-12
2022-12-24T01:11:25.651Z,-12
2022-12-24T01:12:31.922Z,-12
2022-12-24T01:13:38.202Z,-13
2022-12-24T01:14:44.474Z,-12
2022-12-24T01:15:50.768Z,-14
2022-12-24T01:16:57.026Z,-13
2022-12-24T01:18:03.301Z,-11
2022-12-24T01:19:09.595Z,-14
2022-12-24T01:20:15.843Z,-14
2022-12-24T01:21:22.103Z,-13
2022-12-24T01:22:28.460Z,-14
2022-12-24T01:23:34.648Z,-12
2022-12-24T01:24:39.936Z,-13
2022-12-24T01:25:46.265Z,-13
2022-12-24T01:26:52.482Z,-14
2022-12-24T01:27:58.754Z,-12
2022-12-24T01:29:05.050Z,-14
2022-12-24T01:30:11.344Z,-14
2022-12-24T01:31:17.648Z,-13
2022-12-24T01:32:23.883Z,-14
2022-12-24T01:33:30.128Z,-14
2022-12-24T01:34:36.423Z,-14
2022-12-24T01:35:42.654Z,-13
2022-12-24T01:36:48.977Z,-13
2022-12-24T01:37:55.211Z,-13
2022-12-24T01:39:00.516Z,-12
2022-12-24T01:40:06.750Z,-13
2022-12-24T01:41:13.022Z,-15
2022-12-24T01:42:19.306Z,-13
2022-12-24T01:43:25.581Z,-14
2022-12-24T01:44:31.862Z,-14
2022-12-24T01:45:38.169Z,-14
2022-12-24T01:46:44.391Z,-14
2022-12-24T01:47:50.686Z,-14
2022-12-24T01:48:56.939Z,-12
2022-12-24T01:50:03.207Z,-15
2022-12-24T01:51:09.503Z,-14
2022-12-24T01:52:15.754Z,-14
2022-12-24T01:53:21.040Z,-14
2022-12-24T01:54:27.349Z,-15
2022-12-24T01:55:33.584Z,-14
2022-12-24T01:56:39.852Z,-14
2022-12-24T01:57:46.232Z,-16
2022-12-24T01:58:52.396Z,-14
2022-12-24T01:59:58.694Z,-14
2022-12-24T02:01:04.966Z,-14
2022-12-24T02:02:11.228Z,-15
2022-12-24T02:03:17.497Z,-15
2022-12-24T02:04:23.759Z,-15
2022-12-24T02:05:30.034Z,-14
2022-12-24T02:06:36.302Z,-15
2022-12-24T02:07:41.596Z,-15
2022-12-24T02:08:47.863Z,-15
2022-12-24T02:09:54.136Z,-15
2022-12-24T02:11:00.415Z,-15
2022-12-24T02:12:06.683Z,-15
2022-12-24T02:13:12.964Z,-15
2022-12-24T02:14:19.222Z,-13
2022-12-24T02:15:25.491Z,-14
2022-12-24T02:16:31.778Z,-15
2022-12-24T02:17:38.051Z,-15
2022-12-24T02:18:44.318Z,-14
2022-12-24T02:19:50.581Z,-15
2022-12-24T02:20:56.884Z,-14
2022-12-24T02:22:02.144Z,-15
2022-12-24T02:23:08.418Z,-14
2022-12-24T02:24:14.688Z,-15
2022-12-24T02:25:20.966Z,-15
2022-12-24T02:26:27.231Z,-14
2022-12-24T02:27:33.507Z,-15
2022-12-24T02:28:39.779Z,-15
2022-12-24T02:29:46.126Z,-15
2022-12-24T02:30:52.387Z,-15
2022-12-24T02:31:58.584Z,-15
2022-12-24T02:33:04.865Z,-15
2022-12-24T02:34:11.126Z,-15
2022-12-24T02:35:17.405Z,-15
2022-12-24T02:36:22.698Z,-15
2022-12-24T02:37:28.986Z,-16
2022-12-24T02:38:35.258Z,-15
2022-12-24T02:39:41.505Z,-15
2022-12-24T02:40:47.792Z,-15
2022-12-24T02:41:54.082Z,-17
2022-12-24T02:43:00.326Z,-15
2022-12-24T02:44:06.598Z,-16
2022-12-24T02:45:12.870Z,-16
2022-12-24T02:46:19.146Z,-15
2022-12-24T02:47:25.417Z,-15
2022-12-24T02:48:31.691Z,-16
2022-12-24T02:49:37.963Z,-14
2022-12-24T02:50:43.289Z,-15
2022-12-24T02:51:49.562Z,-15
2022-12-24T02:52:55.795Z,-15
2022-12-24T02:54:02.098Z,-15
2022-12-24T02:55:08.344Z,-15
2022-12-24T02:56:14.628Z,-15
2022-12-24T02:57:20.924Z,-15
2022-12-24T02:58:27.160Z,-14
2022-12-24T02:59:33.438Z,-15
2022-12-24T03:00:39.700Z,-15
2022-12-24T03:01:45.968Z,-15
2022-12-24T03:02:52.242Z,-15
2022-12-24T03:03:58.513Z,-15
2022-12-24T03:05:03.792Z,-15
2022-12-24T03:06:10.082Z,-15
2022-12-24T03:07:16.349Z,-15
2022-12-24T03:08:21.675Z,-14
2022-12-24T03:09:26.932Z,-15
2022-12-24T03:10:32.241Z,-15
2022-12-24T03:11:37.529Z,-15
2022-12-24T03:12:43.876Z,-15
2022-12-24T03:13:50.069Z,-15
2022-12-24T03:14:56.348Z,-16
2022-12-24T03:16:02.610Z,-15
2022-12-24T03:17:08.912Z,-15
2022-12-24T03:18:15.161Z,-15
2022-12-24T03:19:21.445Z,-15
2022-12-24T03:20:27.705Z,-15
2022-12-24T03:21:33.971Z,-15
2022-12-24T03:22:40.254Z,-14
2022-12-24T03:23:46.530Z,-16
2022-12-24T03:24:52.788Z,-15
2022-12-24T03:25:58.128Z,-15
2022-12-24T03:27:04.360Z,-15
2022-12-24T03:28:10.630Z,-14
2022-12-24T03:29:16.920Z,-15
2022-12-24T03:30:23.167Z,-13
2022-12-24T03:31:29.439Z,-18
2022-12-24T03:32:35.724Z,-15
2022-12-24T03:33:41.008Z,-15
2022-12-24T03:34:46.301Z,-15
2022-12-24T03:35:51.597Z,-15
2022-12-24T03:36:56.886Z,-15
2022-12-24T03:38:03.154Z,-15
2022-12-24T03:39:09.427Z,-16
2022-12-24T03:40:15.718Z,-15
2022-12-24T03:41:21.968Z,-16
2022-12-24T03:42:28.253Z,-15
2022-12-24T03:43:34.525Z,-15
2022-12-24T03:44:40.792Z,-15
2022-12-24T03:45:47.064Z,-15
2022-12-24T03:46:53.334Z,-16
2022-12-24T03:47:59.606Z,-15
2022-12-24T03:49:05.876Z,-17
2022-12-24T03:50:12.149Z,-15
2022-12-24T03:51:17.437Z,-16
2022-12-24T03:52:23.707Z,-16
2022-12-24T03:53:29.978Z,-15
2022-12-24T03:54:36.258Z,-16
2022-12-24T03:55:42.531Z,-16
2022-12-24T03:56:48.797Z,-16
2022-12-24T03:57:55.080Z,-14
2022-12-24T03:59:00.373Z,-15
2022-12-24T04:00:05.677Z,-15
2022-12-24T04:01:11.938Z,-17
2022-12-24T04:02:17.235Z,-18
2022-12-24T04:03:22.524Z,-17
2022-12-24T04:04:28.796Z,-16
2022-12-24T04:05:35.096Z,-15
2022-12-24T04:06:41.340Z,-15
2022-12-24T04:07:47.633Z,-16
2022-12-24T04:08:53.971Z,-16
2022-12-24T04:10:00.152Z,-15
2022-12-24T04:11:06.425Z,-14
2022-12-24T04:12:12.693Z,-16
2022-12-24T04:13:18.966Z,-16
2022-12-24T04:14:25.241Z,-16
2022-12-24T04:16:37.804Z,-15
2022-12-24T04:17:43.073Z,-15
2022-12-24T04:18:49.342Z,-15
2022-12-24T04:19:55.614Z,-16
2022-12-24T04:21:01.891Z,-15
2022-12-24T04:22:08.157Z,-18
2022-12-24T04:23:14.431Z,-15
2022-12-24T04:24:20.702Z,-16
2022-12-24T04:25:26.971Z,-16
2022-12-24T04:26:32.276Z,-17
2022-12-24T04:27:37.562Z,-15
2022-12-24T04:28:43.835Z,-15
2022-12-24T04:29:49.135Z,-15
2022-12-24T04:30:54.424Z,-15
2022-12-24T04:32:00.696Z,-18
2022-12-24T04:33:06.974Z,-17
2022-12-24T04:34:13.241Z,-17
2022-12-24T04:35:19.505Z,-17
2022-12-24T04:36:25.782Z,-17
2022-12-24T04:37:32.062Z,-16
2022-12-24T04:38:38.323Z,-16
2022-12-24T04:39:44.601Z,-17
2022-12-24T04:40:50.863Z,-16
2022-12-24T04:41:57.160Z,-15
2022-12-24T04:43:03.417Z,-16
2022-12-24T04:44:09.688Z,-17
2022-12-24T04:45:14.974Z,-16
2022-12-24T04:46:21.241Z,-16
2022-12-24T04:47:27.524Z,-16
2022-12-24T04:48:33.787Z,-17
2022-12-24T04:49:40.088Z,-17
2022-12-24T04:50:46.352Z,-17
2022-12-24T04:51:51.637Z,-16
2022-12-24T04:52:56.933Z,-17
2022-12-24T04:54:02.217Z,-17
2022-12-24T04:55:07.518Z,-17
2022-12-24T04:56:12.810Z,-17
2022-12-24T04:57:19.083Z,-17
2022-12-24T04:58:25.345Z,-18
2022-12-24T04:59:31.659Z,-16
2022-12-24T05:00:37.904Z,-17
2022-12-24T05:01:44.169Z,-17
2022-12-24T05:02:50.439Z,-18
2022-12-24T05:03:56.714Z,-17
2022-12-24T05:05:02.977Z,-16
2022-12-24T05:06:09.267Z,-17
2022-12-24T05:07:15.525Z,-16
2022-12-24T05:08:21.819Z,-18
2022-12-24T05:09:28.069Z,-18
2022-12-24T05:10:33.365Z,-17
2022-12-24T05:11:39.630Z,-18
2022-12-24T05:12:45.911Z,-18
2022-12-24T05:13:52.179Z,-18
2022-12-24T05:14:58.445Z,-19
2022-12-24T05:16:04.744Z,-18
2022-12-24T05:17:11.002Z,-18
2022-12-24T05:18:16.313Z,-18
2022-12-24T05:19:21.578Z,-16
2022-12-24T05:20:26.888Z,-18
2022-12-24T05:21:32.167Z,-18
2022-12-24T05:22:38.453Z,-19
2022-12-24T05:23:44.711Z,-18
2022-12-24T05:24:50.996Z,-18
2022-12-24T05:25:57.262Z,-18
2022-12-24T05:27:03.526Z,-19
2022-12-24T05:28:09.799Z,-18
2022-12-24T05:29:16.108Z,-19
2022-12-24T05:30:22.385Z,-19
2022-12-24T05:31:28.613Z,-18
2022-12-24T05:32:34.881Z,-19
2022-12-24T05:33:41.154Z,-18
2022-12-24T05:34:47.432Z,-18
2022-12-24T05:35:52.717Z,-18
2022-12-24T05:36:58.991Z,-18
2022-12-24T05:38:05.268Z,-18
2022-12-24T05:39:11.561Z,-19
2022-12-24T05:40:17.816Z,-21
2022-12-24T05:41:24.081Z,-18
2022-12-24T05:42:30.363Z,-18
2022-12-24T05:43:36.623Z,-18
2022-12-24T05:44:41.928Z,-18
2022-12-24T05:45:47.229Z,-19
2022-12-24T05:46:52.520Z,-18
2022-12-24T05:47:57.806Z,-17
2022-12-24T05:49:04.076Z,-18
2022-12-24T05:50:10.360Z,-18
2022-12-24T05:51:16.614Z,-18
2022-12-24T05:52:22.890Z,-18
2022-12-24T05:53:29.160Z,-20
2022-12-24T05:54:35.446Z,-18
2022-12-24T05:55:41.717Z,-18
2022-12-24T05:56:47.995Z,-18
2022-12-24T05:57:54.246Z,-19
2022-12-24T05:59:00.519Z,-18
2022-12-24T06:00:06.797Z,-18
2022-12-24T06:01:13.063Z,-18
2022-12-24T06:02:18.345Z,-18
2022-12-24T06:03:24.627Z,-18
2022-12-24T06:04:30.900Z,-18
2022-12-24T06:05:37.170Z,-18
2022-12-24T06:06:43.464Z,-18
2022-12-24T06:07:49.713Z,-18
2022-12-24T06:08:55.994Z,-18
2022-12-24T06:10:01.280Z,-16
2022-12-24T06:11:06.571Z,-18
2022-12-24T06:12:12.880Z,-18
2022-12-24T06:13:19.125Z,-18
2022-12-24T06:14:24.416Z,-18
2022-12-24T06:15:29.835Z,-18
2022-12-24T06:16:35.985Z,-19
2022-12-24T06:17:42.248Z,-18
2022-12-24T06:18:48.523Z,-18
2022-12-24T06:19:54.795Z,-18
2022-12-24T06:21:01.069Z,-18
2022-12-24T06:22:07.345Z,-18
2022-12-24T06:23:13.615Z,-18
2022-12-24T06:24:19.899Z,-19
2022-12-24T06:25:26.153Z,-19
2022-12-24T06:26:32.426Z,-19
2022-12-24T06:27:38.709Z,-16
2022-12-24T06:28:44.982Z,-19
2022-12-24T06:29:50.258Z,-19
2022-12-24T06:30:56.533Z,-18
2022-12-24T06:32:02.805Z,-18
2022-12-24T06:33:09.077Z,-17
2022-12-24T06:34:15.356Z,-18
2022-12-24T06:35:21.619Z,-17
2022-12-24T06:36:27.890Z,-16
2022-12-24T06:37:33.190Z,-18
2022-12-24T06:38:38.485Z,-18
2022-12-24T06:39:43.772Z,-17
2022-12-24T06:40:49.123Z,-16
2022-12-24T06:41:55.356Z,-16
2022-12-24T06:43:01.608Z,-17
2022-12-24T06:44:07.878Z,-18
2022-12-24T06:45:14.204Z,-17
2022-12-24T06:46:20.424Z,-16
2022-12-24T06:47:26.717Z,-18
2022-12-24T06:48:32.981Z,-17
2022-12-24T06:49:39.247Z,-16
2022-12-24T06:50:45.529Z,-17
2022-12-24T06:51:51.783Z,-17
2022-12-24T06:52:58.149Z,-18
2022-12-24T06:54:04.375Z,-18
2022-12-24T06:55:09.656Z,-18
2022-12-24T06:56:15.974Z,-21
2022-12-24T06:57:22.175Z,-18
2022-12-24T06:58:28.431Z,-18
2022-12-24T06:59:34.832Z,-17
2022-12-24T07:00:41.143Z,-18
2022-12-24T07:01:47.273Z,-18
2022-12-24T07:02:52.560Z,-18
2022-12-24T07:03:57.835Z,-18
2022-12-24T07:05:03.138Z,-17
2022-12-24T07:06:08.459Z,-16
2022-12-24T07:07:14.717Z,-18
2022-12-24T07:08:20.966Z,-18
2022-12-24T07:09:27.378Z,-18
2022-12-24T07:10:33.515Z,-16
2022-12-24T07:11:39.816Z,-17
2022-12-24T07:12:46.067Z,-18
2022-12-24T07:13:52.337Z,-18
2022-12-24T07:14:58.594Z,-18
2022-12-24T07:16:04.876Z,-18
2022-12-24T07:17:11.139Z,-18
2022-12-24T07:18:17.429Z,-18
2022-12-24T07:19:23.699Z,-17
2022-12-24T07:20:29.002Z,-17
2022-12-24T07:21:35.266Z,-19
2022-12-24T07:22:41.523Z,-18
2022-12-24T07:23:47.793Z,-18
2022-12-24T07:24:54.060Z,-18
2022-12-24T07:26:00.355Z,-18
2022-12-24T07:27:06.614Z,-18
2022-12-24T07:28:11.907Z,-18
2022-12-24T07:29:17.243Z,-17
2022-12-24T07:30:22.515Z,-18
2022-12-24T07:31:27.782Z,-19
2022-12-24T07:32:34.059Z,-18
2022-12-24T07:33:40.330Z,-18
2022-12-24T07:34:46.606Z,-18
2022-12-24T07:35:52.885Z,-18
2022-12-24T07:36:59.141Z,-18
2022-12-24T07:38:05.412Z,-18
2022-12-24T07:39:11.680Z,-18
2022-12-24T07:40:17.982Z,-17
2022-12-24T07:41:24.228Z,-17
2022-12-24T07:42:30.500Z,-18
2022-12-24T07:43:36.823Z,-18
2022-12-24T07:44:43.092Z,-18
2022-12-24T07:45:48.331Z,-18
2022-12-24T07:46:54.631Z,-18
2022-12-24T07:48:00.881Z,-18
2022-12-24T07:49:07.148Z,-17
2022-12-24T07:50:13.428Z,-18
2022-12-24T07:51:19.702Z,-18
2022-12-24T07:52:25.969Z,-18
2022-12-24T07:53:31.314Z,-17
2022-12-24T07:54:37.557Z,-17
2022-12-24T07:55:42.834Z,-18
2022-12-24T07:56:48.118Z,-18
2022-12-24T07:57:54.395Z,-18
2022-12-24T07:59:00.668Z,-18
2022-12-24T08:00:06.938Z,-18
2022-12-24T08:01:13.232Z,-17
2022-12-24T08:02:19.649Z,-17
2022-12-24T08:03:25.757Z,-18
2022-12-24T08:04:32.192Z,-17
2022-12-24T08:05:38.360Z,-18
2022-12-24T08:06:44.612Z,-17
2022-12-24T08:07:50.941Z,-18
2022-12-24T08:08:57.165Z,-17
2022-12-24T08:10:03.397Z,-18
2022-12-24T08:11:08.819Z,-17
2022-12-24T08:12:15.062Z,-18
2022-12-24T08:13:21.417Z,-18
2022-12-24T08:14:27.555Z,-18
2022-12-24T08:15:33.857Z,-18
2022-12-24T08:16:40.151Z,-18
2022-12-24T08:17:46.385Z,-18
2022-12-24T08:18:51.745Z,-17
2022-12-24T08:19:56.992Z,-18
2022-12-24T08:21:03.165Z,-18
2022-12-24T08:22:08.545Z,-18
2022-12-24T08:23:13.778Z,-17
2022-12-24T08:24:20.208Z,-18
2022-12-24T08:25:26.310Z,-18
2022-12-24T08:26:32.713Z,-18
2022-12-24T08:27:38.836Z,-18
2022-12-24T08:28:45.221Z,-18
2022-12-24T08:29:51.382Z,-18
2022-12-24T08:30:57.700Z,-18
2022-12-24T08:32:04.041Z,-17
2022-12-24T08:33:09.266Z,-16
2022-12-24T08:34:15.497Z,-17
2022-12-24T08:35:21.775Z,-17
2022-12-24T08:36:28.037Z,-17
2022-12-24T08:37:34.368Z,-18
2022-12-24T08:38:40.630Z,-17
2022-12-24T08:39:46.935Z,-16
2022-12-24T08:40:53.193Z,-17
2022-12-24T08:41:59.392Z,-18
2022-12-24T08:43:05.732Z,-18
2022-12-24T08:44:12.039Z,-17
2022-12-24T08:45:17.241Z,-17
2022-12-24T08:46:22.544Z,-16
2022-12-24T08:47:28.802Z,-17
2022-12-24T08:48:35.073Z,-18
2022-12-24T08:49:41.348Z,-19
2022-12-24T08:50:47.628Z,-17
2022-12-24T08:51:53.907Z,-16
2022-12-24T08:53:00.199Z,-18
2022-12-24T08:54:06.449Z,-17
2022-12-24T08:55:12.793Z,-17
2022-12-24T08:56:19.066Z,-18
2022-12-24T08:57:25.248Z,-17
2022-12-24T08:58:31.516Z,-18
2022-12-24T08:59:37.936Z,-17
2022-12-24T09:00:43.104Z,-17
2022-12-24T09:01:49.453Z,-17
2022-12-24T09:02:55.695Z,-15
2022-12-24T09:04:01.975Z,-12
2022-12-24T09:05:08.185Z,-15
2022-12-24T09:06:14.593Z,-17
2022-12-24T09:07:20.711Z,-16
2022-12-24T09:08:26.158Z,-17
2022-12-24T09:09:31.319Z,-16
2022-12-24T09:10:36.760Z,-17
2022-12-24T09:11:41.929Z,-16
2022-12-24T09:12:48.154Z,-17
2022-12-24T09:13:54.535Z,-17
2022-12-24T09:15:00.714Z,-18
2022-12-24T09:16:07.039Z,-17
2022-12-24T09:17:13.243Z,-18
2022-12-24T09:18:19.607Z,-16
2022-12-24T09:19:25.843Z,-15
2022-12-24T09:20:32.084Z,-18
2022-12-24T09:21:38.334Z,-18
2022-12-24T09:22:44.661Z,-16
2022-12-24T09:23:50.889Z,-16
2022-12-24T09:24:57.174Z,-17
2022-12-24T09:26:02.487Z,-17
2022-12-24T09:27:08.737Z,-17
2022-12-24T09:28:14.989Z,-18
2022-12-24T09:29:21.342Z,-17
2022-12-24T09:30:27.530Z,-17
2022-12-24T09:31:33.813Z,-17
2022-12-24T09:32:40.186Z,-16
2022-12-24T09:33:45.370Z,-17
2022-12-24T09:34:50.741Z,-17
2022-12-24T09:35:56.938Z,-16
2022-12-24T09:37:03.230Z,-17
2022-12-24T09:38:09.473Z,-16
2022-12-24T09:39:15.765Z,-15
2022-12-24T09:40:22.072Z,-17
2022-12-24T09:41:28.350Z,-17
2022-12-24T09:42:34.595Z,-17
2022-12-24T09:43:40.919Z,-17
2022-12-24T09:44:47.125Z,-17
2022-12-24T09:45:53.413Z,-18
2022-12-24T09:46:59.674Z,-18
2022-12-24T09:48:05.985Z,-17
2022-12-24T09:49:11.239Z,-17
2022-12-24T09:50:17.596Z,-17
2022-12-24T09:51:23.784Z,-17
2022-12-24T09:52:30.051Z,-17
2022-12-24T09:53:36.444Z,-17
2022-12-24T09:54:41.660Z,-17
2022-12-24T09:55:46.946Z,-17
2022-12-24T09:56:53.161Z,-16
2022-12-24T09:57:59.551Z,-15
2022-12-24T09:59:05.701Z,-16
2022-12-24T10:00:11.981Z,-16
2022-12-24T10:01:18.282Z,-15
2022-12-24T10:02:24.579Z,-17
2022-12-24T10:04:37.098Z,-17
2022-12-24T10:05:43.379Z,-17
2022-12-24T10:06:49.678Z,-17
2022-12-24T10:07:55.876Z,-18
2022-12-24T10:09:02.163Z,-17
2022-12-24T10:10:07.441Z,-17
2022-12-24T10:11:13.716Z,-17
2022-12-24T10:12:20.001Z,-17
2022-12-24T10:13:26.251Z,-18
2022-12-24T10:14:32.535Z,-18
2022-12-24T10:15:38.802Z,-15
2022-12-24T10:16:45.077Z,-17
2022-12-24T10:17:51.412Z,-18
2022-12-24T10:18:57.614Z,-17
2022-12-24T10:20:03.887Z,-17
2022-12-24T10:21:10.182Z,-17
2022-12-24T10:22:16.469Z,-18
2022-12-24T10:23:22.715Z,-17
2022-12-24T10:24:28.078Z,-16
2022-12-24T10:25:34.275Z,-16
2022-12-24T10:26:40.539Z,-17
2022-12-24T10:27:46.804Z,-16
2022-12-24T10:28:53.083Z,-16
2022-12-24T10:29:59.351Z,-15
2022-12-24T10:31:05.672Z,-17
2022-12-24T10:32:11.939Z,-15
2022-12-24T10:33:18.169Z,-17
2022-12-24T10:34:24.440Z,-16
2022-12-24T10:35:30.778Z,-16
2022-12-24T10:36:37.016Z,-17
2022-12-24T10:37:43.258Z,-16
2022-12-24T10:38:48.547Z,-16
2022-12-24T10:39:54.909Z,-17
2022-12-24T10:41:01.108Z,-19
2022-12-24T10:42:07.366Z,-17
2022-12-24T10:43:13.629Z,-16
2022-12-24T10:44:19.927Z,-16
2022-12-24T10:45:26.205Z,-16
2022-12-24T10:46:32.443Z,-17
2022-12-24T10:47:38.813Z,-17
2022-12-24T10:48:44.998Z,-16
2022-12-24T10:49:51.267Z,-18
2022-12-24T10:50:57.606Z,-16
2022-12-24T10:52:03.807Z,-17
2022-12-24T10:53:09.099Z,-17
2022-12-24T10:54:15.364Z,-16
2022-12-24T10:55:21.679Z,-17
2022-12-24T10:56:27.912Z,-17
2022-12-24T10:57:34.183Z,-16
2022-12-24T10:58:40.474Z,-16
2022-12-24T10:59:46.726Z,-18
2022-12-24T11:00:53.109Z,-17
2022-12-24T11:01:59.288Z,-17
2022-12-24T11:03:05.539Z,-17
2022-12-24T11:04:11.813Z,-17
2022-12-24T11:05:18.088Z,-16
2022-12-24T11:06:24.435Z,-17
2022-12-24T11:07:29.649Z,-17
2022-12-24T11:08:36.018Z,-16
2022-12-24T11:10:48.456Z,-16
2022-12-24T11:11:54.747Z,-16
2022-12-24T11:13:01.006Z,-17
2022-12-24T11:14:07.348Z,-17
2022-12-24T11:15:13.563Z,-16
2022-12-24T11:16:19.822Z,-16
2022-12-24T11:17:26.133Z,-17
2022-12-24T11:18:32.420Z,-16
2022-12-24T11:19:38.690Z,-15
2022-12-24T11:20:44.924Z,-18
2022-12-24T11:21:50.265Z,-16
2022-12-24T11:22:56.491Z,-17
2022-12-24T11:24:02.755Z,-16
2022-12-24T11:25:09.027Z,-18
2022-12-24T11:27:21.558Z,-17
2022-12-24T11:28:27.831Z,-16
2022-12-24T11:29:34.119Z,-16
2022-12-24T11:30:40.370Z,-17
2022-12-24T11:31:46.678Z,-16
2022-12-24T11:32:52.934Z,-17
2022-12-24T11:33:59.327Z,-16
2022-12-24T11:35:05.458Z,-17
2022-12-24T11:36:10.747Z,-17
2022-12-24T11:37:17.033Z,-16
2022-12-24T11:38:23.296Z,-15
2022-12-24T11:39:29.579Z,-15
2022-12-24T11:40:35.920Z,-17
2022-12-24T11:41:42.133Z,-16
2022-12-24T11:42:48.396Z,-15
2022-12-24T11:43:54.650Z,-15
2022-12-24T11:45:00.921Z,-16
2022-12-24T11:46:07.185Z,-16
2022-12-24T11:47:13.486Z,-15
2022-12-24T11:48:19.762Z,-16
2022-12-24T11:49:26.012Z,-16
2022-12-24T11:50:31.294Z,-17
2022-12-24T11:51:37.572Z,-14
2022-12-24T11:52:43.838Z,-15
2022-12-24T11:53:50.116Z,-15
2022-12-24T11:54:56.389Z,-15
2022-12-24T11:56:02.668Z,-16
2022-12-24T11:57:08.925Z,-14
2022-12-24T11:58:15.198Z,-15
2022-12-24T11:59:21.472Z,-17
2022-12-24T12:00:27.746Z,-18
2022-12-24T12:01:34.016Z,-16
2022-12-24T12:02:40.350Z,-15
2022-12-24T12:03:46.558Z,-15
2022-12-24T12:04:51.905Z,-16
2022-12-24T12:05:58.161Z,-16
2022-12-24T12:07:04.401Z,-16
2022-12-24T12:08:10.686Z,-15
2022-12-24T12:09:16.935Z,-16
2022-12-24T12:10:23.206Z,-16
2022-12-24T12:11:29.495Z,-17
2022-12-24T12:12:35.761Z,-17
2022-12-24T12:13:42.122Z,-17
2022-12-24T12:14:47.321Z,-16
2022-12-24T12:15:53.602Z,-15
2022-12-24T12:16:59.897Z,-16
2022-12-24T12:18:06.134Z,-16
2022-12-24T12:19:12.475Z,-16
2022-12-24T12:20:18.774Z,-15
2022-12-24T12:21:24.954Z,-16
2022-12-24T12:22:31.269Z,-16
2022-12-24T12:23:37.520Z,-16
2022-12-24T12:24:43.764Z,-16
2022-12-24T12:25:50.047Z,-16
2022-12-24T12:26:56.325Z,-18
2022-12-24T12:28:02.586Z,-16
2022-12-24T12:29:07.873Z,-16
2022-12-24T12:30:14.128Z,-16
2022-12-24T12:31:20.415Z,-16
2022-12-24T12:32:26.692Z,-16
2022-12-24T12:33:33.064Z,-16
2022-12-24T12:34:39.225Z,-17
2022-12-24T12:35:45.498Z,-15
2022-12-24T12:36:51.767Z,-16
2022-12-24T12:37:58.046Z,-16
2022-12-24T12:39:04.325Z,-15
2022-12-24T12:40:10.591Z,-16
2022-12-24T12:41:16.936Z,-16
2022-12-24T12:42:23.263Z,-16
2022-12-24T12:43:28.413Z,-17
2022-12-24T12:44:34.697Z,-15
2022-12-24T12:45:40.960Z,-15
2022-12-24T12:46:47.234Z,-17
2022-12-24T12:47:53.598Z,-15
2022-12-24T12:48:59.789Z,-16
2022-12-24T12:50:06.040Z,-17
2022-12-24T12:51:12.345Z,-17
2022-12-24T12:52:18.645Z,-17
2022-12-24T12:53:24.858Z,-16
2022-12-24T12:54:31.134Z,-18
2022-12-24T12:55:37.442Z,-16
2022-12-24T12:56:43.780Z,-17
2022-12-24T12:57:49.009Z,-15
2022-12-24T12:58:55.284Z,-17
2022-12-24T13:00:01.540Z,-17
2022-12-24T13:01:07.825Z,-16
2022-12-24T13:02:14.056Z,-18
2022-12-24T13:03:19.415Z,-16
2022-12-24T13:04:24.640Z,-16
2022-12-24T13:05:29.950Z,-17
2022-12-24T13:06:35.262Z,-17
2022-12-24T13:07:41.566Z,-15
2022-12-24T13:08:47.771Z,-17
2022-12-24T13:09:54.042Z,-16
2022-12-24T13:11:00.377Z,-16
2022-12-24T13:12:06.665Z,-16
2022-12-24T13:13:12.852Z,-18
2022-12-24T13:14:19.147Z,-16
2022-12-24T13:15:25.398Z,-17
2022-12-24T13:16:31.674Z,-16
2022-12-24T13:17:37.958Z,-15
2022-12-24T13:18:44.222Z,-17
2022-12-24T13:19:50.517Z,-16
2022-12-24T13:20:55.904Z,-17
2022-12-24T13:22:02.132Z,-17
2022-12-24T13:23:08.346Z,-18
2022-12-24T13:24:14.593Z,-16
2022-12-24T13:25:20.912Z,-16
2022-12-24T13:26:27.134Z,-16
2022-12-24T13:27:33.484Z,-15
2022-12-24T13:28:39.812Z,-17
2022-12-24T13:29:45.991Z,-16
2022-12-24T13:30:52.334Z,-16
2022-12-24T13:31:58.612Z,-17
2022-12-24T13:33:04.806Z,-16
2022-12-24T13:34:11.090Z,-16
2022-12-24T13:35:16.326Z,-16
2022-12-24T13:36:22.682Z,-16
2022-12-24T13:37:28.917Z,-16
2022-12-24T13:39:41.411Z,-16
2022-12-24T13:40:47.689Z,-17
2022-12-24T13:41:54.038Z,-18
2022-12-24T13:43:00.224Z,-16
2022-12-24T13:44:06.519Z,-16
2022-12-24T13:45:12.776Z,-16
2022-12-24T13:46:19.113Z,-16
2022-12-24T13:47:25.439Z,-18
2022-12-24T13:48:31.627Z,-18
2022-12-24T13:49:36.889Z,-16
2022-12-24T13:50:43.150Z,-17
2022-12-24T13:51:49.431Z,-17
2022-12-24T13:52:55.809Z,-17
2022-12-24T13:54:01.966Z,-16
2022-12-24T13:55:08.259Z,-17
2022-12-24T13:56:14.587Z,-16
2022-12-24T13:57:20.780Z,-17
2022-12-24T13:58:27.051Z,-18
2022-12-24T13:59:33.356Z,-18
2022-12-24T14:00:39.618Z,-18
2022-12-24T14:01:45.991Z,-17
2022-12-24T14:02:52.211Z,-18
2022-12-24T14:03:57.441Z,-16
2022-12-24T14:05:03.702Z,-17
2022-12-24T14:06:09.082Z,-16
2022-12-24T14:07:14.284Z,-16
2022-12-24T14:08:20.676Z,-15
2022-12-24T14:09:26.839Z,-16
2022-12-24T14:10:33.208Z,-18
2022-12-24T14:11:38.548Z,-17
2022-12-24T14:12:43.689Z,-17
2022-12-24T14:13:49.954Z,-16
2022-12-24T14:14:56.371Z,-16
2022-12-24T14:16:02.528Z,-17
2022-12-24T14:17:08.772Z,-18
2022-12-24T14:18:15.081Z,-18
2022-12-24T14:19:21.341Z,-18
2022-12-24T14:20:27.600Z,-17
2022-12-24T14:21:33.859Z,-18
2022-12-24T14:22:40.315Z,-17
2022-12-24T14:23:46.451Z,-17
2022-12-24T14:24:52.676Z,-18
2022-12-24T14:25:58.955Z,-18
2022-12-24T14:27:04.276Z,-18
2022-12-24T14:28:10.543Z,-17
2022-12-24T14:29:16.814Z,-18
2022-12-24T14:30:23.057Z,-17
2022-12-24T14:31:29.334Z,-16
2022-12-24T14:32:35.757Z,-17
2022-12-24T14:33:42.036Z,-17
2022-12-24T14:34:47.265Z,-17
2022-12-24T14:35:52.559Z,-15
2022-12-24T14:36:57.922Z,-19
2022-12-24T14:38:03.153Z,-17
2022-12-24T14:39:09.387Z,-18
2022-12-24T14:40:15.714Z,-17
2022-12-24T14:41:21.880Z,-18
2022-12-24T14:42:28.167Z,-17
2022-12-24T14:43:34.403Z,-17
2022-12-24T14:44:40.733Z,-19
2022-12-24T14:45:47.089Z,-18
2022-12-24T14:46:53.214Z,-18
2022-12-24T14:47:59.495Z,-19
2022-12-24T14:49:05.766Z,-18
2022-12-24T14:50:12.039Z,-18
2022-12-24T14:51:18.422Z,-18
2022-12-24T14:52:23.601Z,-18
2022-12-24T14:53:29.926Z,-18
2022-12-24T14:54:36.146Z,-19
2022-12-24T14:55:42.413Z,-18
2022-12-24T14:56:48.768Z,-18
2022-12-24T14:57:54.953Z,-18
2022-12-24T14:59:01.328Z,-18
2022-12-24T15:00:06.542Z,-19
2022-12-24T15:01:11.917Z,-19
2022-12-24T15:02:18.089Z,-18
2022-12-24T15:03:24.374Z,-19
2022-12-24T15:04:29.752Z,-18
2022-12-24T15:05:34.972Z,-18
2022-12-24T15:06:41.247Z,-18
2022-12-24T15:07:47.491Z,-19
2022-12-24T15:08:53.771Z,-18
2022-12-24T15:10:00.038Z,-20
2022-12-24T15:11:06.377Z,-19
2022-12-24T15:12:12.715Z,-20
2022-12-24T15:13:18.869Z,-19
2022-12-24T15:14:25.164Z,-20
2022-12-24T15:15:31.404Z,-19
2022-12-24T15:16:37.671Z,-18